createdAt,value
2023-03-13T00:02:03.916Z,99422.69
2023-03-13T00:04:33.894Z,99420.03
2023-03-13T00:07:02.787Z,99419.81
2023-03-13T00:09:35.004Z,99424.03
2023-03-13T00:12:08.207Z,99409.84
2023-03-13T00:14:40.097Z,99402.19
2023-03-13T00:17:25.608Z,99409.66
2023-03-13T00:19:53.808Z,99399.69
2023-03-13T00:22:23.608Z,99395.03
2023-03-13T00:24:53.066Z,99388.66
2023-03-13T00:27:29.612Z,99387.75
2023-03-13T00:30:00.405Z,99385.09
2023-03-13T00:32:31.047Z,99385.13
2023-03-13T00:35:03.016Z,99376.59
2023-03-13T00:37:40.936Z,99371.91
2023-03-13T00:40:13.314Z,99373.75
2023-03-13T00:42:42.916Z,99367.78
2023-03-13T00:45:18.239Z,99369.19
2023-03-13T00:47:57.946Z,99365.25
2023-03-13T00:50:26.812Z,99359.88
2023-03-13T00:52:56.503Z,99362.88
2023-03-13T00:55:27.647Z,99362.31
2023-03-13T00:57:58.265Z,99360.53
2023-03-13T01:00:29.719Z,99356.03
2023-03-13T01:03:01.632Z,99353.69
2023-03-13T01:05:31.030Z,99360.19
2023-03-13T01:08:04.248Z,99351.97
2023-03-13T01:10:35.190Z,99340.34
2023-03-13T01:13:08.068Z,99349.84
2023-03-13T01:15:39.844Z,99353.81
2023-03-13T01:18:26.283Z,99338.06
2023-03-13T01:20:58.259Z,99335.00
2023-03-13T01:23:28.373Z,99330.78
2023-03-13T01:26:03.544Z,99329.72
2023-03-13T01:28:40.894Z,99327.25
2023-03-13T01:31:20.700Z,99325.34
2023-03-13T01:34:01.257Z,99321.66
2023-03-13T01:36:33.686Z,99315.47
2023-03-13T01:39:05.490Z,99318.19
2023-03-13T01:41:38.526Z,99318.84
2023-03-13T01:44:13.512Z,99319.16
2023-03-13T01:46:43.554Z,99320.72
2023-03-13T01:49:45.048Z,99322.97
2023-03-13T01:52:32.209Z,99330.69
2023-03-13T01:55:26.660Z,99318.25
2023-03-13T01:58:00.712Z,99324.41
2023-03-13T02:00:35.332Z,99323.28
2023-03-13T02:03:11.638Z,99321.94
2023-03-13T02:05:47.155Z,99325.75
2023-03-13T02:08:26.318Z,99313.72
2023-03-13T02:11:05.243Z,99314.97
2023-03-13T02:13:33.961Z,99314.06
2023-03-13T02:16:13.592Z,99311.53
2023-03-13T02:18:46.901Z,99308.56
2023-03-13T02:21:32.035Z,99317.88
2023-03-13T02:24:07.986Z,99312.78
2023-03-13T02:26:42.893Z,99307.13
2023-03-13T02:29:18.978Z,99313.28
2023-03-13T02:31:56.159Z,99320.03
2023-03-13T02:34:31.544Z,99310.19
2023-03-13T02:37:03.258Z,99313.56
2023-03-13T02:39:40.911Z,99319.69
2023-03-13T02:42:18.910Z,99300.78
2023-03-13T02:44:51.498Z,99308.28
2023-03-13T02:47:26.594Z,99322.72
2023-03-13T02:50:05.460Z,99312.69
2023-03-13T02:52:46.354Z,99319.47
2023-03-13T02:55:26.025Z,99328.25
2023-03-13T02:57:56.663Z,99327.84
2023-03-13T03:00:28.328Z,99326.84
2023-03-13T03:02:59.656Z,99323.91
2023-03-13T03:05:36.352Z,99314.97
2023-03-13T03:08:07.331Z,99304.09
2023-03-13T03:10:45.557Z,99318.19
2023-03-13T03:13:21.446Z,99326.56
2023-03-13T03:16:05.959Z,99324.25
2023-03-13T03:18:35.374Z,99305.47
2023-03-13T03:21:09.464Z,99318.22
2023-03-13T03:23:52.287Z,99320.72
2023-03-13T03:26:21.270Z,99328.56
2023-03-13T03:28:57.356Z,99325.72
2023-03-13T03:31:32.138Z,99314.81
2023-03-13T03:34:01.601Z,99331.91
2023-03-13T03:36:31.270Z,99324.50
2023-03-13T03:39:05.360Z,99328.59
2023-03-13T03:41:35.852Z,99321.66
2023-03-13T03:44:07.975Z,99320.88
2023-03-13T03:46:57.491Z,99323.94
2023-03-13T03:49:38.174Z,99323.38
2023-03-13T03:52:15.339Z,99317.94
2023-03-13T03:54:51.953Z,99320.06
2023-03-13T03:57:21.567Z,99318.09
2023-03-13T03:59:53.998Z,99320.59
2023-03-13T04:02:25.659Z,99325.91
2023-03-13T04:04:58.001Z,99329.28
2023-03-13T04:07:33.276Z,99328.63
2023-03-13T04:10:03.691Z,99335.88
2023-03-13T04:12:39.148Z,99335.75
2023-03-13T04:15:15.997Z,99336.41
2023-03-13T04:17:47.421Z,99338.00
2023-03-13T04:20:18.546Z,99327.06
2023-03-13T04:22:48.863Z,99321.19
2023-03-13T04:25:20.682Z,99320.31
2023-03-13T04:27:53.557Z,99323.69
2023-03-13T04:30:37.846Z,99316.81
2023-03-13T04:33:09.513Z,99308.59
2023-03-13T04:36:16.445Z,99297.13
2023-03-13T04:39:10.779Z,99294.44
2023-03-13T04:42:03.743Z,99306.91
2023-03-13T04:45:03.250Z,99305.00
2023-03-13T04:48:05.879Z,99293.91
2023-03-13T04:50:55.492Z,99294.34
2023-03-13T04:53:54.413Z,99292.63
2023-03-13T04:56:44.370Z,99286.75
2023-03-13T04:59:33.025Z,99289.00
2023-03-13T05:02:28.503Z,99285.63
2023-03-13T05:05:09.901Z,99277.94
2023-03-13T05:07:58.474Z,99274.72
2023-03-13T05:10:48.460Z,99272.72
2023-03-13T05:13:46.226Z,99266.69
2023-03-13T05:16:43.624Z,99269.09
2023-03-13T05:19:35.408Z,99273.41
2023-03-13T05:22:41.993Z,99270.06
2023-03-13T05:25:38.681Z,99278.59
2023-03-13T05:28:34.132Z,99279.03
2023-03-13T05:31:25.211Z,99280.72
2023-03-13T05:34:14.806Z,99266.16
2023-03-13T05:37:11.603Z,99266.28
2023-03-13T05:39:50.496Z,99258.72
2023-03-13T05:42:43.104Z,99265.72
2023-03-13T05:45:37.636Z,99262.09
2023-03-13T05:48:40.721Z,99264.88
2023-03-13T05:51:42.604Z,99274.72
2023-03-13T05:54:45.773Z,99259.28
2023-03-13T05:57:37.110Z,99261.13
2023-03-13T06:00:33.004Z,99255.66
2023-03-13T06:03:26.441Z,99254.16
2023-03-13T06:06:00.054Z,99249.50
2023-03-13T06:08:40.845Z,99235.22
2023-03-13T06:11:13.009Z,99227.56
2023-03-13T06:13:43.944Z,99239.59
2023-03-13T06:16:33.734Z,99243.22
2023-03-13T06:19:37.653Z,99246.16
2023-03-13T06:22:12.427Z,99238.03
2023-03-13T06:24:46.134Z,99244.91
2023-03-13T06:27:19.146Z,99244.34
2023-03-13T06:29:52.721Z,99247.97
2023-03-13T06:32:23.746Z,99233.13
2023-03-13T06:35:11.950Z,99243.63
2023-03-13T06:37:44.361Z,99244.47
2023-03-13T06:40:21.803Z,99241.97
2023-03-13T06:42:53.177Z,99236.34
2023-03-13T06:45:25.974Z,99227.38
2023-03-13T06:47:55.419Z,99233.13
2023-03-13T06:50:29.586Z,99232.28
2023-03-13T06:53:04.054Z,99225.03
2023-03-13T06:55:32.534Z,99226.28
2023-03-13T06:58:01.660Z,99226.00
2023-03-13T07:00:38.356Z,99224.59
2023-03-13T07:03:08.214Z,99225.84
2023-03-13T07:05:37.529Z,99226.84
2023-03-13T07:08:09.518Z,99226.13
2023-03-13T07:10:38.291Z,99212.69
2023-03-13T07:13:07.648Z,99213.78
2023-03-13T07:15:39.632Z,99208.41
2023-03-13T07:18:17.753Z,99202.75
2023-03-13T07:20:48.997Z,99191.25
2023-03-13T07:23:23.485Z,99194.69
2023-03-13T07:25:59.032Z,99203.50
2023-03-13T07:28:37.786Z,99201.13
2023-03-13T07:31:15.847Z,99180.66
2023-03-13T07:33:48.849Z,99187.22
2023-03-13T07:36:22.393Z,99184.44
2023-03-13T07:39:03.064Z,99183.88
2023-03-13T07:41:31.273Z,99160.84
2023-03-13T07:44:02.075Z,99160.63
2023-03-13T07:46:31.750Z,99158.88
2023-03-13T07:49:01.714Z,99168.63
2023-03-13T07:51:42.550Z,99166.66
2023-03-13T07:54:21.154Z,99170.09
2023-03-13T07:56:52.023Z,99160.56
2023-03-13T07:59:21.609Z,99165.59
2023-03-13T08:02:03.037Z,99161.84
2023-03-13T08:04:34.856Z,99159.03
2023-03-13T08:07:04.323Z,99150.78
2023-03-13T08:09:45.511Z,99157.19
2023-03-13T08:12:14.871Z,99169.59
2023-03-13T08:14:49.277Z,99158.97
2023-03-13T08:17:24.821Z,99151.09
2023-03-13T08:19:53.177Z,99151.88
2023-03-13T08:22:24.497Z,99144.63
2023-03-13T08:24:55.463Z,99144.00
2023-03-13T08:27:25.229Z,99143.19
2023-03-13T08:29:54.402Z,99135.13
2023-03-13T08:32:37.904Z,99128.63
2023-03-13T08:35:09.652Z,99132.75
2023-03-13T08:37:38.875Z,99130.16
2023-03-13T08:40:13.808Z,99132.97
2023-03-13T08:42:45.298Z,99127.09
2023-03-13T08:45:20.261Z,99121.38
2023-03-13T08:47:59.196Z,99124.44
2023-03-13T08:50:29.814Z,99123.91
2023-03-13T08:52:59.096Z,99120.09
2023-03-13T08:55:30.089Z,99116.81
2023-03-13T08:58:08.896Z,99113.22
2023-03-13T09:00:39.809Z,99123.66
2023-03-13T09:03:11.734Z,99124.22
2023-03-13T09:05:55.102Z,99130.38
2023-03-13T09:08:37.342Z,99122.66
2023-03-13T09:11:09.470Z,99119.19
2023-03-13T09:13:42.771Z,99122.50
2023-03-13T09:16:13.638Z,99115.34
2023-03-13T09:18:44.991Z,99111.97
2023-03-13T09:21:17.539Z,99113.84
2023-03-13T09:23:47.702Z,99130.38
2023-03-13T09:26:22.670Z,99126.72
2023-03-13T09:28:51.647Z,99118.53
2023-03-13T09:31:26.212Z,99126.88
2023-03-13T09:33:59.285Z,99135.13
2023-03-13T09:36:41.555Z,99135.94
2023-03-13T09:39:09.746Z,99131.81
2023-03-13T09:41:46.783Z,99127.44
2023-03-13T09:44:20.720Z,99109.19
2023-03-13T09:47:00.841Z,99112.44
2023-03-13T09:49:36.472Z,99126.50
2023-03-13T09:52:18.179Z,99131.81
2023-03-13T09:54:52.614Z,99117.34
2023-03-13T09:57:28.484Z,99120.53
2023-03-13T10:00:00.712Z,99113.16
2023-03-13T10:02:36.302Z,99123.53
2023-03-13T10:05:21.550Z,99124.69
2023-03-13T10:07:52.608Z,99110.94
2023-03-13T10:10:30.766Z,99111.44
2023-03-13T10:13:13.395Z,99109.13
2023-03-13T10:15:46.337Z,99105.47
2023-03-13T10:18:22.417Z,99100.78
2023-03-13T10:21:05.219Z,99074.03
2023-03-13T10:23:52.850Z,99058.31
2023-03-13T10:26:29.839Z,99065.50
2023-03-13T10:29:21.214Z,99074.38
2023-03-13T10:32:00.332Z,99073.38
2023-03-13T10:34:34.890Z,99061.03
2023-03-13T10:37:09.551Z,99051.47
2023-03-13T10:39:38.938Z,99056.81
2023-03-13T10:42:25.690Z,99058.34
2023-03-13T10:44:58.258Z,99050.47
2023-03-13T10:47:31.578Z,99040.44
2023-03-13T10:50:00.538Z,99033.25
2023-03-13T10:52:48.692Z,99040.75
2023-03-13T10:55:23.550Z,99031.88
2023-03-13T10:58:04.652Z,99042.91
2023-03-13T11:00:39.858Z,99035.53
2023-03-13T11:03:25.471Z,99027.00
2023-03-13T11:06:05.354Z,99035.03
2023-03-13T11:08:49.400Z,99017.97
2023-03-13T11:11:23.453Z,99017.81
2023-03-13T11:13:53.056Z,99024.47
2023-03-13T11:16:32.995Z,99037.00
2023-03-13T11:19:27.406Z,99039.34
2023-03-13T11:22:07.616Z,99029.66
2023-03-13T11:24:48.128Z,99037.31
2023-03-13T11:27:24.618Z,99016.50
2023-03-13T11:30:02.975Z,99026.34
2023-03-13T11:32:42.466Z,99016.13
2023-03-13T11:35:45.054Z,99017.25
2023-03-13T11:38:23.399Z,99026.59
2023-03-13T11:41:03.677Z,99027.75
2023-03-13T11:43:46.610Z,99017.53
2023-03-13T11:46:43.498Z,99015.03
2023-03-13T11:49:45.737Z,99007.84
2023-03-13T11:52:23.176Z,99001.19
2023-03-13T11:55:24.490Z,98992.00
2023-03-13T11:58:08.253Z,98998.19
2023-03-13T12:00:40.723Z,98984.50
2023-03-13T12:03:24.729Z,98975.22
2023-03-13T12:06:01.075Z,98985.41
2023-03-13T12:08:33.322Z,98985.59
2023-03-13T12:11:08.319Z,98990.47
2023-03-13T12:13:45.804Z,98993.16
2023-03-13T12:16:20.935Z,98984.78
2023-03-13T12:18:53.437Z,98970.50
2023-03-13T12:21:24.993Z,98945.31
2023-03-13T12:24:02.199Z,98964.34
2023-03-13T12:26:41.150Z,98974.34
2023-03-13T12:29:20.398Z,98944.63
2023-03-13T12:31:57.586Z,98922.06
2023-03-13T12:34:36.148Z,98915.84
2023-03-13T12:37:17.930Z,98933.25
2023-03-13T12:39:52.400Z,98935.69
2023-03-13T12:42:38.375Z,98924.41
2023-03-13T12:45:10.610Z,98918.84
2023-03-13T12:47:58.452Z,98906.81
2023-03-13T12:50:41.792Z,98912.38
2023-03-13T12:53:47.694Z,98909.13
2023-03-13T12:57:10.607Z,98906.19
2023-03-13T12:59:44.103Z,98888.44
2023-03-13T13:02:25.813Z,98896.38
2023-03-13T13:04:58.619Z,98886.63
2023-03-13T13:07:31.244Z,98882.66
2023-03-13T13:10:20.802Z,98885.88
2023-03-13T13:13:30.281Z,98891.41
2023-03-13T13:16:07.767Z,98888.41
2023-03-13T13:18:40.314Z,98892.97
2023-03-13T13:21:26.623Z,98878.91
2023-03-13T13:24:37.663Z,98869.06
2023-03-13T13:27:20.133Z,98857.34
2023-03-13T13:30:24.071Z,98861.56
2023-03-13T13:32:54.179Z,98868.13
2023-03-13T13:35:35.841Z,98860.25
2023-03-13T13:38:43.610Z,98848.78
2023-03-13T13:41:47.078Z,98841.41
2023-03-13T13:44:39.292Z,98822.63
2023-03-13T13:47:26.802Z,98817.84
2023-03-13T13:49:58.109Z,98807.72
2023-03-13T13:52:43.507Z,98810.59
2023-03-13T13:55:35.927Z,98808.19
2023-03-13T13:58:07.216Z,98818.06
2023-03-13T14:00:46.844Z,98811.31
2023-03-13T14:03:29.114Z,98807.91
2023-03-13T14:06:01.755Z,98798.84
2023-03-13T14:08:37.876Z,98796.56
2023-03-13T14:11:11.282Z,98790.78
2023-03-13T14:13:40.998Z,98775.78
2023-03-13T14:16:26.796Z,98778.47
2023-03-13T14:19:03.495Z,98769.03
2023-03-13T14:21:34.685Z,98774.13
2023-03-13T14:24:23.069Z,98765.63
2023-03-13T14:26:54.277Z,98762.09
2023-03-13T14:29:35.374Z,98754.97
2023-03-13T14:32:15.909Z,98743.22
2023-03-13T14:34:47.400Z,98735.53
2023-03-13T14:37:41.601Z,98736.59
2023-03-13T14:40:33.332Z,98744.16
2023-03-13T14:43:05.329Z,98747.00
2023-03-13T14:45:44.129Z,98731.88
2023-03-13T14:48:22.882Z,98734.34
2023-03-13T14:51:08.869Z,98728.91
2023-03-13T14:53:56.824Z,98726.03
2023-03-13T14:56:44.870Z,98718.00
2023-03-13T14:59:29.557Z,98715.31
2023-03-13T15:02:07.275Z,98709.66
2023-03-13T15:05:01.541Z,98708.66
2023-03-13T15:07:40.955Z,98711.69
2023-03-13T15:10:23.628Z,98709.84
2023-03-13T15:12:57.978Z,98722.06
2023-03-13T15:15:26.415Z,98726.97
2023-03-13T15:17:57.205Z,98713.84
2023-03-13T15:20:25.419Z,98710.97
2023-03-13T15:22:55.276Z,98710.13
2023-03-13T15:25:29.871Z,98703.28
2023-03-13T15:27:59.841Z,98702.53
2023-03-13T15:30:29.071Z,98694.22
2023-03-13T15:32:59.557Z,98703.47
2023-03-13T15:35:37.169Z,98703.63
2023-03-13T15:38:11.467Z,98706.56
2023-03-13T15:40:44.996Z,98698.63
2023-03-13T15:43:28.882Z,98701.88
2023-03-13T15:45:58.064Z,98692.91
2023-03-13T15:48:28.816Z,98687.81
2023-03-13T15:50:59.814Z,98678.75
2023-03-13T15:53:31.310Z,98671.00
2023-03-13T15:56:06.841Z,98678.94
2023-03-13T15:58:51.127Z,98682.81
2023-03-13T16:01:25.274Z,98687.94
2023-03-13T16:03:55.825Z,98688.91
2023-03-13T16:06:31.182Z,98687.72
2023-03-13T16:09:03.018Z,98684.56
2023-03-13T16:11:31.999Z,98673.00
2023-03-13T16:14:03.060Z,98672.38
2023-03-13T16:16:37.298Z,98669.41
2023-03-13T16:19:08.212Z,98665.25
2023-03-13T16:21:40.373Z,98655.44
2023-03-13T16:24:09.735Z,98664.41
2023-03-13T16:26:38.267Z,98668.75
2023-03-13T16:29:20.663Z,98664.88
2023-03-13T16:31:51.169Z,98661.66
2023-03-13T16:34:27.025Z,98661.06
2023-03-13T16:37:07.845Z,98654.78
2023-03-13T16:39:36.031Z,98664.22
2023-03-13T16:42:06.434Z,98659.69
2023-03-13T16:44:41.639Z,98657.94
2023-03-13T16:47:22.055Z,98651.66
2023-03-13T16:49:53.410Z,98638.97
2023-03-13T16:52:26.440Z,98647.19
2023-03-13T16:54:55.090Z,98644.03
2023-03-13T16:57:26.726Z,98635.53
2023-03-13T17:00:01.988Z,98627.03
2023-03-13T17:02:33.553Z,98628.25
2023-03-13T17:05:04.769Z,98618.88
2023-03-13T17:07:34.529Z,98617.22
2023-03-13T17:10:06.770Z,98613.72
2023-03-13T17:12:36.855Z,98616.31
2023-03-13T17:15:15.146Z,98603.28
2023-03-13T17:17:51.643Z,98604.47
2023-03-13T17:20:23.060Z,98608.88
2023-03-13T17:22:56.622Z,98598.53
2023-03-13T17:25:41.069Z,98595.38
2023-03-13T17:28:25.204Z,98588.91
2023-03-13T17:31:04.958Z,98583.00
2023-03-13T17:33:37.569Z,98579.88
2023-03-13T17:36:20.734Z,98574.84
2023-03-13T17:38:53.196Z,98564.84
2023-03-13T17:41:32.716Z,98558.31
2023-03-13T17:44:07.549Z,98559.50
2023-03-13T17:46:41.209Z,98560.53
2023-03-13T17:49:14.377Z,98552.19
2023-03-13T17:51:49.893Z,98556.88
2023-03-13T17:54:24.144Z,98547.56
2023-03-13T17:56:56.323Z,98540.06
2023-03-13T17:59:29.373Z,98535.25
2023-03-13T18:02:07.354Z,98524.09
2023-03-13T18:04:49.005Z,98522.06
2023-03-13T18:07:25.964Z,98521.78
2023-03-13T18:09:55.455Z,98521.59
2023-03-13T18:12:42.436Z,98519.75
2023-03-13T18:15:17.428Z,98521.97
2023-03-13T18:18:13.127Z,98508.28
2023-03-13T18:20:47.606Z,98512.47
2023-03-13T18:23:23.852Z,98510.16
2023-03-13T18:26:01.979Z,98516.66
2023-03-13T18:28:49.609Z,98517.38
2023-03-13T18:31:32.936Z,98519.25
2023-03-13T18:34:18.787Z,98527.44
2023-03-13T18:36:51.718Z,98518.31
2023-03-13T18:39:28.552Z,98523.50
2023-03-13T18:42:00.193Z,98524.34
2023-03-13T18:44:30.264Z,98504.13
2023-03-13T18:47:15.914Z,98500.47
2023-03-13T18:49:56.015Z,98479.09
2023-03-13T18:52:37.760Z,98472.06
2023-03-13T18:55:18.213Z,98466.25
2023-03-13T18:57:52.886Z,98465.06
2023-03-13T19:00:37.614Z,98466.69
2023-03-13T19:03:11.211Z,98458.06
2023-03-13T19:05:49.529Z,98447.22
2023-03-13T19:08:21.892Z,98439.13
2023-03-13T19:10:54.764Z,98436.63
2023-03-13T19:16:20.769Z,98435.78
2023-03-13T19:19:05.009Z,98420.75
2023-03-13T19:21:46.874Z,98416.94
2023-03-13T19:24:20.679Z,98412.34
2023-03-13T19:27:03.785Z,98416.00
2023-03-13T19:29:46.054Z,98406.50
2023-03-13T19:32:29.312Z,98395.81
2023-03-13T19:35:09.702Z,98386.84
2023-03-13T19:37:42.968Z,98389.25
2023-03-13T19:40:31.548Z,98384.59
2023-03-13T19:43:12.956Z,98368.16
2023-03-13T19:45:53.313Z,98369.94
2023-03-13T19:48:33.001Z,98379.56
2023-03-13T19:51:27.828Z,98393.91
2023-03-13T19:54:16.022Z,98394.06
2023-03-13T19:56:48.713Z,98385.72
2023-03-13T19:59:24.466Z,98378.03
2023-03-13T20:02:09.684Z,98357.94
2023-03-13T20:04:50.999Z,98354.25
2023-03-13T20:07:36.233Z,98347.25
2023-03-13T20:10:22.616Z,98348.25
2023-03-13T20:13:03.239Z,98348.06
2023-03-13T20:15:40.264Z,98336.69
2023-03-13T20:18:15.217Z,98329.50
2023-03-13T20:20:49.939Z,98327.06
2023-03-13T20:23:31.754Z,98319.53
2023-03-13T20:26:18.884Z,98308.72
2023-03-13T20:28:54.008Z,98303.56
2023-03-13T20:31:40.896Z,98302.25
2023-03-13T20:34:22.804Z,98300.53
2023-03-13T20:36:57.918Z,98290.88
2023-03-13T20:39:33.480Z,98272.19
2023-03-13T20:42:17.103Z,98270.88
2023-03-13T20:45:10.779Z,98260.56
2023-03-13T20:47:47.120Z,98263.22
2023-03-13T20:50:27.572Z,98258.72
2023-03-13T20:52:57.850Z,98255.41
2023-03-13T20:55:32.922Z,98255.91
2023-03-13T20:58:25.075Z,98247.06
2023-03-13T21:01:07.463Z,98238.75
2023-03-13T21:03:55.217Z,98238.41
2023-03-13T21:06:31.773Z,98232.75
2023-03-13T21:09:24.204Z,98230.09
2023-03-13T21:12:07.691Z,98222.34
2023-03-13T21:15:06.777Z,98210.81
2023-03-13T21:17:46.831Z,98210.47
2023-03-13T21:20:22.236Z,98199.63
2023-03-13T21:22:50.541Z,98192.63
2023-03-13T21:25:31.341Z,98173.56
2023-03-13T21:28:06.992Z,98176.63
2023-03-13T21:30:42.374Z,98173.84
2023-03-13T21:33:23.251Z,98182.41
2023-03-13T21:36:00.893Z,98179.09
2023-03-13T21:38:39.550Z,98166.03
2023-03-13T21:41:17.044Z,98150.28
2023-03-13T21:43:54.652Z,98142.09
2023-03-13T21:46:38.133Z,98134.63
2023-03-13T21:49:12.419Z,98108.00
2023-03-13T21:51:42.057Z,98118.97
2023-03-13T21:54:11.761Z,98117.94
2023-03-13T21:56:41.977Z,98118.66
2023-03-13T21:59:16.428Z,98118.41
2023-03-13T22:01:58.324Z,98115.25
2023-03-13T22:04:34.106Z,98124.28
2023-03-13T22:07:10.698Z,98116.22
2023-03-13T22:09:46.931Z,98110.28
2023-03-13T22:12:26.706Z,98102.16
2023-03-13T22:15:02.600Z,98094.59
2023-03-13T22:17:43.829Z,98090.91
2023-03-13T22:20:21.366Z,98084.66
2023-03-13T22:22:55.593Z,98075.88
2023-03-13T22:25:31.824Z,98065.91
2023-03-13T22:28:12.265Z,98059.28
2023-03-13T22:30:45.084Z,98052.16
2023-03-13T22:33:17.281Z,98046.03
2023-03-13T22:35:55.585Z,98034.44
2023-03-13T22:38:32.736Z,98026.31
2023-03-13T22:41:08.265Z,98006.91
2023-03-13T22:43:36.884Z,97992.53
2023-03-13T22:46:07.200Z,97996.56
2023-03-13T22:48:44.333Z,98000.66
2023-03-13T22:51:15.733Z,97994.03
2023-03-13T22:53:44.796Z,97975.63
2023-03-13T22:56:21.191Z,97966.25
2023-03-13T22:58:55.280Z,97960.00
2023-03-13T23:01:35.321Z,97952.91
2023-03-13T23:04:07.967Z,97944.47
2023-03-13T23:06:40.816Z,97950.97
2023-03-13T23:09:18.529Z,97935.88
2023-03-13T23:11:57.778Z,97931.50
2023-03-13T23:14:36.435Z,97940.78
2023-03-13T23:17:06.246Z,97930.03
2023-03-13T23:19:45.853Z,97931.88
2023-03-13T23:22:22.216Z,97928.47
2023-03-13T23:24:54.754Z,97918.53
2023-03-13T23:27:25.399Z,97916.41
2023-03-13T23:29:58.666Z,97919.72
2023-03-13T23:32:29.583Z,97915.31
2023-03-13T23:35:12.917Z,97906.75
2023-03-13T23:37:53.949Z,97906.41
2023-03-13T23:40:25.597Z,97913.75
2023-03-13T23:42:57.425Z,97906.41
2023-03-13T23:45:26.858Z,97890.28
2023-03-13T23:47:56.558Z,97875.22
2023-03-13T23:50:34.095Z,97859.88
2023-03-13T23:53:03.836Z,97869.44
2023-03-13T23:55:32.538Z,97858.66
2023-03-13T23:58:04.231Z,97856.38
